Terminal Aerodrome Forecast
Issued by NWS

Current Version | Previous Version | Graphics & Text | Print | Product List | Glossary On
Versions: 1 2 3 4 5 6 7 8 9 10 11 12 13 14 15 16 17 18 19 20 21 22 23
000
FTUS41 KRLX 121100
TAFCKB
TAF
KCKB 121120Z 1212/1312 02005KT P6SM OVC012
     FM121600 02005KT P6SM BKN025
     FM122100 01005KT P6SM SCT025 BKN035
     FM130300 00000KT P6SM BKN035
     FM130600 00000KT 6SM BR OVC030
     FM130900 00000KT 5SM SHRA BR OVC025
     FM131000 00000KT 6SM BR OVC012=

USA.gov is the U.S. government's official web portal to all federal, state and local government web resources and services.